createdAt,value
2018-10-12T00:00:58.473Z,13.80
2018-10-12T00:03:33.876Z,13.80
2018-10-12T00:06:09.342Z,13.80
2018-10-12T00:08:44.731Z,13.70
2018-10-12T00:11:20.206Z,13.70
2018-10-12T00:13:55.719Z,13.70
2018-10-12T00:16:31.368Z,13.70
2018-10-12T00:19:07.001Z,13.60
2018-10-12T00:21:42.581Z,13.60
2018-10-12T00:24:18.014Z,13.60
2018-10-12T00:26:53.438Z,13.60
2018-10-12T00:29:28.986Z,13.60
2018-10-12T00:32:04.393Z,13.60
2018-10-12T00:34:39.774Z,13.60
2018-10-12T00:37:15.385Z,13.50
2018-10-12T00:39:50.585Z,13.50
2018-10-12T00:42:26.169Z,13.40
2018-10-12T00:45:01.641Z,13.40
2018-10-12T00:47:37.200Z,13.40
2018-10-12T00:50:12.602Z,13.30
2018-10-12T00:52:48.089Z,13.30
2018-10-12T00:55:25.154Z,13.30
2018-10-12T00:58:00.623Z,13.30
2018-10-12T01:00:36.136Z,13.30
2018-10-12T01:03:11.690Z,13.40
2018-10-12T01:05:46.973Z,13.40
2018-10-12T01:08:22.368Z,13.50
2018-10-12T01:10:57.877Z,13.50
2018-10-12T01:13:33.242Z,13.50
2018-10-12T01:16:08.540Z,13.50
2018-10-12T01:18:44.202Z,13.50
2018-10-12T01:21:19.518Z,13.60
2018-10-12T01:23:55.151Z,13.60
2018-10-12T01:26:30.455Z,13.70
2018-10-12T01:29:06.183Z,13.70
2018-10-12T01:31:41.764Z,13.70
2018-10-12T01:34:17.335Z,13.80
2018-10-12T01:36:52.762Z,13.80
2018-10-12T01:39:28.365Z,13.90
2018-10-12T01:42:04.017Z,14.00
2018-10-12T01:44:39.969Z,14.00
2018-10-12T01:47:15.281Z,14.00
2018-10-12T01:49:50.778Z,14.10
2018-10-12T01:52:26.308Z,14.00
2018-10-12T01:55:01.889Z,14.00
2018-10-12T01:57:37.413Z,14.00
2018-10-12T02:00:12.966Z,14.00
2018-10-12T02:02:48.510Z,14.00
2018-10-12T02:05:24.243Z,14.00
2018-10-12T02:07:59.494Z,14.00
2018-10-12T02:10:35.325Z,14.00
2018-10-12T02:13:10.587Z,13.90
2018-10-12T02:15:46.152Z,13.90
2018-10-12T02:18:21.652Z,13.90
2018-10-12T02:20:57.328Z,13.90
2018-10-12T02:23:32.648Z,13.90
2018-10-12T02:26:08.358Z,13.80
2018-10-12T02:28:44.100Z,13.80
2018-10-12T02:31:19.708Z,13.70
2018-10-12T02:33:55.253Z,13.70
2018-10-12T02:36:30.818Z,13.60
2018-10-12T02:39:10.565Z,13.60
2018-10-12T02:41:46.323Z,13.60
2018-10-12T02:44:21.838Z,13.50
2018-10-12T02:46:57.547Z,13.50
2018-10-12T02:49:32.984Z,13.40
2018-10-12T02:52:08.592Z,13.40
2018-10-12T02:54:44.144Z,13.40
2018-10-12T02:57:19.831Z,13.30
2018-10-12T02:59:55.273Z,13.20
2018-10-12T03:02:30.827Z,13.20
2018-10-12T03:05:07.029Z,13.10
2018-10-12T03:07:42.533Z,13.10
2018-10-12T03:10:17.841Z,13.00
2018-10-12T03:12:53.549Z,13.00
2018-10-12T03:15:29.172Z,13.00
2018-10-12T03:18:04.844Z,13.00
2018-10-12T03:20:40.017Z,13.00
2018-10-12T03:23:15.454Z,13.00
2018-10-12T03:25:50.860Z,12.90
2018-10-12T03:28:29.876Z,12.90
2018-10-12T03:31:05.715Z,12.90
2018-10-12T03:33:41.309Z,12.80
2018-10-12T03:36:16.761Z,12.80
2018-10-12T03:38:52.273Z,12.80
2018-10-12T03:41:27.725Z,12.80
2018-10-12T03:44:03.266Z,12.80
2018-10-12T03:46:38.800Z,12.80
2018-10-12T03:49:14.484Z,12.80
2018-10-12T03:51:49.776Z,12.70
2018-10-12T03:54:25.250Z,12.70
2018-10-12T03:57:00.686Z,12.80
2018-10-12T03:59:36.345Z,12.70
2018-10-12T04:02:11.947Z,12.70
2018-10-12T04:04:47.749Z,12.70
2018-10-12T04:07:23.202Z,12.80
2018-10-12T04:09:58.924Z,12.70
2018-10-12T04:12:34.517Z,12.70
2018-10-12T04:15:10.040Z,12.60
2018-10-12T04:17:45.387Z,12.70
2018-10-12T04:20:21.129Z,12.70
2018-10-12T04:22:56.749Z,12.80
2018-10-12T04:25:32.565Z,12.80
2018-10-12T04:28:07.996Z,12.80
2018-10-12T04:30:43.585Z,12.80
2018-10-12T04:33:19.398Z,12.70
2018-10-12T04:35:55.119Z,12.70
2018-10-12T04:38:47.148Z,12.70
2018-10-12T04:41:23.748Z,12.70
2018-10-12T04:44:00.571Z,12.70
2018-10-12T04:46:39.530Z,12.80
2018-10-12T04:49:16.695Z,12.80
2018-10-12T04:51:54.429Z,12.80
2018-10-12T04:54:29.996Z,12.80
2018-10-12T04:57:05.383Z,12.80
2018-10-12T04:59:40.897Z,12.80
2018-10-12T05:02:16.433Z,12.80
2018-10-12T05:04:51.989Z,12.70
2018-10-12T05:07:27.528Z,12.80
2018-10-12T05:10:02.873Z,12.80
2018-10-12T05:12:38.468Z,12.70
2018-10-12T05:15:13.658Z,12.80
2018-10-12T05:17:49.056Z,12.70
2018-10-12T05:20:24.412Z,12.60
2018-10-12T05:22:59.886Z,12.60
2018-10-12T05:25:35.252Z,12.60
2018-10-12T05:28:11.072Z,12.60
2018-10-12T05:30:46.577Z,12.60
2018-10-12T05:33:22.137Z,12.60
2018-10-12T05:35:57.676Z,12.60
2018-10-12T05:38:33.665Z,12.60
2018-10-12T05:41:09.093Z,12.60
2018-10-12T05:43:44.526Z,12.60
2018-10-12T05:46:19.897Z,12.60
2018-10-12T05:49:12.329Z,12.60
2018-10-12T05:51:47.734Z,12.70
2018-10-12T05:54:23.222Z,12.70
2018-10-12T05:56:58.637Z,12.70
2018-10-12T05:59:34.419Z,12.90
2018-10-12T06:02:10.002Z,12.90
2018-10-12T06:04:45.744Z,13.10
2018-10-12T06:07:21.186Z,13.20
2018-10-12T06:09:56.881Z,13.20
2018-10-12T06:12:32.053Z,13.20
2018-10-12T06:15:07.729Z,13.20
2018-10-12T06:17:43.044Z,13.30
2018-10-12T06:20:18.575Z,13.30
2018-10-12T06:22:54.123Z,13.40
2018-10-12T06:25:29.681Z,13.70
2018-10-12T06:28:05.229Z,14.10
2018-10-12T06:30:40.670Z,14.50
2018-10-12T06:33:15.995Z,14.90
2018-10-12T06:35:51.448Z,15.20
2018-10-12T06:38:26.424Z,15.50
2018-10-12T06:41:02.022Z,15.60
2018-10-12T06:43:37.219Z,15.80
2018-10-12T06:46:11.948Z,16.00
2018-10-12T06:48:47.174Z,16.10
2018-10-12T06:51:22.632Z,16.30
2018-10-12T06:53:58.210Z,16.30
2018-10-12T06:56:33.795Z,16.40
2018-10-12T06:59:08.905Z,16.40
2018-10-12T07:01:43.752Z,16.60
2018-10-12T07:04:19.031Z,16.60
2018-10-12T07:06:54.441Z,16.70
2018-10-12T07:09:29.817Z,16.70
2018-10-12T07:12:05.292Z,16.90
2018-10-12T07:14:41.539Z,17.00
2018-10-12T07:17:16.961Z,17.00
2018-10-12T07:19:52.341Z,17.00
2018-10-12T07:22:27.817Z,16.70
2018-10-12T07:25:03.024Z,16.40
2018-10-12T07:27:38.725Z,16.10
2018-10-12T07:30:14.284Z,16.00
2018-10-12T07:32:50.140Z,15.90
2018-10-12T07:35:25.667Z,15.90
2018-10-12T07:38:01.078Z,15.90
2018-10-12T07:40:36.565Z,15.90
2018-10-12T07:43:12.105Z,15.90
2018-10-12T07:45:47.574Z,16.10
2018-10-12T07:48:23.168Z,16.20
2018-10-12T07:50:58.778Z,16.30
2018-10-12T07:53:34.196Z,16.30
2018-10-12T07:56:09.585Z,16.50
2018-10-12T07:58:45.173Z,16.50
2018-10-12T08:01:20.373Z,16.60
2018-10-12T08:03:56.002Z,16.70
2018-10-12T08:06:31.478Z,16.70
2018-10-12T08:09:09.964Z,16.70
2018-10-12T08:11:45.285Z,16.80
2018-10-12T08:14:20.873Z,16.90
2018-10-12T08:16:56.274Z,16.90
2018-10-12T08:19:32.329Z,17.00
2018-10-12T08:22:07.777Z,17.20
2018-10-12T08:24:43.318Z,17.30
2018-10-12T08:27:18.809Z,17.40
2018-10-12T08:29:54.378Z,17.50
2018-10-12T08:32:29.869Z,17.60
2018-10-12T08:35:05.363Z,17.70
2018-10-12T08:37:40.802Z,17.80
2018-10-12T08:40:16.337Z,17.90
2018-10-12T08:42:51.834Z,17.90
2018-10-12T08:45:27.525Z,18.00
2018-10-12T08:48:03.090Z,18.10
2018-10-12T08:50:38.553Z,18.20
2018-10-12T08:53:14.089Z,18.40
2018-10-12T08:55:49.548Z,18.50
2018-10-12T08:58:24.985Z,18.60
2018-10-12T09:01:00.637Z,18.60
2018-10-12T09:03:36.134Z,18.70
2018-10-12T09:06:11.689Z,18.80
2018-10-12T09:08:47.128Z,19.00
2018-10-12T09:11:23.108Z,19.10
2018-10-12T09:13:58.500Z,19.30
2018-10-12T09:16:33.948Z,19.40
2018-10-12T09:19:09.457Z,19.50
2018-10-12T09:21:45.435Z,19.60
2018-10-12T09:24:20.768Z,19.80
2018-10-12T09:26:56.207Z,20.00
2018-10-12T09:29:31.657Z,20.10
2018-10-12T09:32:07.683Z,20.20
2018-10-12T09:34:42.947Z,20.30
2018-10-12T09:37:18.452Z,20.40
2018-10-12T09:39:53.896Z,20.50
2018-10-12T09:42:29.342Z,20.50
2018-10-12T09:45:04.771Z,20.70
2018-10-12T09:47:40.456Z,20.70
2018-10-12T09:50:15.755Z,20.80
2018-10-12T09:52:51.153Z,20.90
2018-10-12T09:55:26.509Z,21.00
2018-10-12T09:58:01.923Z,21.00
2018-10-12T10:00:42.525Z,21.00
2018-10-12T10:03:23.333Z,21.00
2018-10-12T10:05:58.697Z,21.10
2018-10-12T10:08:34.516Z,21.10
2018-10-12T10:11:09.649Z,21.20
2018-10-12T10:13:44.981Z,21.30
2018-10-12T10:16:20.284Z,21.40
2018-10-12T10:18:55.957Z,21.50
2018-10-12T10:21:31.425Z,21.50
2018-10-12T10:24:07.062Z,21.50
2018-10-12T10:26:42.637Z,21.40
2018-10-12T10:29:18.209Z,21.50
2018-10-12T10:31:53.898Z,21.60
2018-10-12T10:34:29.049Z,21.60
2018-10-12T10:37:04.564Z,21.70
2018-10-12T10:39:39.955Z,21.70
2018-10-12T10:42:15.294Z,21.70
2018-10-12T10:44:50.793Z,21.80
2018-10-12T10:47:26.174Z,21.80
2018-10-12T10:50:01.580Z,21.90
2018-10-12T10:52:36.996Z,22.00
2018-10-12T10:55:12.455Z,22.00
2018-10-12T10:57:47.981Z,22.10
2018-10-12T11:00:23.596Z,22.20
2018-10-12T11:02:59.057Z,22.30
2018-10-12T11:05:34.653Z,22.40
2018-10-12T11:08:09.997Z,22.50
2018-10-12T11:10:45.437Z,22.50
2018-10-12T11:13:20.963Z,22.40
2018-10-12T11:15:56.401Z,22.60
2018-10-12T11:18:31.943Z,22.60
2018-10-12T11:21:08.102Z,22.60
2018-10-12T11:23:43.565Z,22.70
2018-10-12T11:26:19.120Z,22.80
2018-10-12T11:28:54.550Z,22.90
2018-10-12T11:31:30.189Z,23.00
2018-10-12T11:34:05.916Z,23.00
2018-10-12T11:36:41.489Z,23.00
2018-10-12T11:39:16.893Z,23.00
2018-10-12T11:41:52.269Z,23.10
2018-10-12T11:44:27.802Z,23.00
2018-10-12T11:47:03.248Z,23.10
2018-10-12T11:49:38.567Z,23.20
2018-10-12T11:52:14.043Z,23.20
2018-10-12T11:54:49.389Z,23.30
2018-10-12T11:57:24.945Z,23.30
2018-10-12T12:00:00.258Z,23.30
2018-10-12T12:02:35.924Z,23.30
2018-10-12T12:05:11.276Z,23.30
2018-10-12T12:07:46.862Z,23.40
2018-10-12T12:10:22.441Z,23.40
2018-10-12T12:12:58.070Z,23.40
2018-10-12T12:15:33.385Z,23.40
2018-10-12T12:18:08.908Z,23.50
2018-10-12T12:20:44.252Z,23.50
2018-10-12T12:23:19.833Z,23.50
2018-10-12T12:25:55.323Z,23.60
2018-10-12T12:28:31.061Z,23.60
2018-10-12T12:31:06.534Z,23.60
2018-10-12T12:33:42.053Z,23.60
2018-10-12T12:36:17.391Z,23.70
2018-10-12T12:38:52.869Z,23.80
2018-10-12T12:41:28.307Z,23.90
2018-10-12T12:44:03.836Z,23.90
2018-10-12T12:46:39.313Z,24.00
2018-10-12T12:49:15.360Z,24.00
2018-10-12T12:51:50.402Z,24.10
2018-10-12T12:54:26.545Z,24.20
2018-10-12T12:57:01.975Z,24.00
2018-10-12T12:59:37.470Z,24.00
2018-10-12T13:02:12.727Z,24.00
2018-10-12T13:04:48.170Z,24.00
2018-10-12T13:07:23.677Z,24.00
2018-10-12T13:09:59.543Z,24.10
2018-10-12T13:12:34.854Z,24.10
2018-10-12T13:15:10.321Z,24.10
2018-10-12T13:17:45.613Z,24.00
2018-10-12T13:20:21.127Z,24.00
2018-10-12T13:22:56.281Z,24.00
2018-10-12T13:25:31.775Z,23.90
2018-10-12T13:28:07.273Z,24.00
2018-10-12T13:30:43.099Z,23.90
2018-10-12T13:33:18.535Z,24.00
2018-10-12T13:35:53.929Z,23.90
2018-10-12T13:38:29.400Z,23.90
2018-10-12T13:41:04.849Z,23.90
2018-10-12T13:43:40.273Z,23.90
2018-10-12T13:46:15.681Z,23.80
2018-10-12T13:48:51.128Z,23.80
2018-10-12T13:51:26.686Z,23.80
2018-10-12T13:54:01.998Z,23.80
2018-10-12T13:56:37.429Z,23.80
2018-10-12T13:59:12.852Z,23.80
2018-10-12T14:01:48.409Z,23.80
2018-10-12T14:04:24.014Z,23.80
2018-10-12T14:06:59.553Z,23.70
2018-10-12T14:09:35.084Z,23.60
2018-10-12T14:12:10.788Z,23.60
2018-10-12T14:14:45.994Z,23.60
2018-10-12T14:17:21.393Z,23.50
2018-10-12T14:19:56.933Z,23.60
2018-10-12T14:22:32.613Z,23.50
2018-10-12T14:25:08.363Z,23.50
2018-10-12T14:27:43.805Z,23.50
2018-10-12T14:30:19.391Z,23.50
2018-10-12T14:32:55.107Z,23.40
2018-10-12T14:35:30.533Z,23.40
2018-10-12T14:38:05.987Z,23.30
2018-10-12T14:40:41.424Z,23.30
2018-10-12T14:43:17.077Z,23.30
2018-10-12T14:45:52.518Z,23.30
2018-10-12T14:48:28.053Z,23.20
2018-10-12T14:51:03.545Z,23.10
2018-10-12T14:53:39.036Z,23.10
2018-10-12T14:56:14.850Z,23.10
2018-10-12T14:58:50.346Z,23.10
2018-10-12T15:01:25.732Z,23.10
2018-10-12T15:04:01.189Z,23.10
2018-10-12T15:06:36.480Z,23.00
2018-10-12T15:09:13.691Z,23.00
2018-10-12T15:11:49.159Z,23.00
2018-10-12T15:14:44.656Z,23.00
2018-10-12T15:17:19.953Z,22.90
2018-10-12T15:19:55.371Z,22.80
2018-10-12T15:22:30.857Z,22.80
2018-10-12T15:25:06.417Z,22.80
2018-10-12T15:27:42.047Z,22.70
2018-10-12T15:30:18.113Z,22.70
2018-10-12T15:32:53.630Z,22.60
2018-10-12T15:35:29.436Z,22.50
2018-10-12T15:38:04.889Z,22.50
2018-10-12T15:40:40.718Z,22.40
2018-10-12T15:43:16.254Z,22.30
2018-10-12T15:45:51.837Z,22.20
2018-10-12T15:48:27.206Z,22.10
2018-10-12T15:51:02.702Z,22.00
2018-10-12T15:53:38.046Z,21.90
2018-10-12T15:56:13.652Z,21.80
2018-10-12T15:58:49.102Z,21.60
2018-10-12T16:01:24.507Z,21.60
2018-10-12T16:03:59.977Z,21.50
2018-10-12T16:06:35.385Z,21.50
2018-10-12T16:09:10.873Z,21.40
2018-10-12T16:11:46.255Z,21.20
2018-10-12T16:14:21.725Z,21.10
2018-10-12T16:16:57.147Z,21.00
2018-10-12T16:19:32.602Z,20.90
2018-10-12T16:22:08.579Z,20.80
2018-10-12T16:25:00.536Z,20.60
2018-10-12T16:27:35.908Z,20.50
2018-10-12T16:30:11.463Z,20.50
2018-10-12T16:32:46.881Z,20.40
2018-10-12T16:35:22.303Z,20.30
2018-10-12T16:37:57.898Z,20.20
2018-10-12T16:40:33.329Z,20.10
2018-10-12T16:43:08.835Z,20.10
2018-10-12T16:45:44.458Z,19.90
2018-10-12T16:48:19.841Z,19.80
2018-10-12T16:50:55.207Z,19.70
2018-10-12T16:53:31.001Z,19.60
2018-10-12T16:56:06.569Z,19.50
2018-10-12T16:58:41.970Z,19.40
2018-10-12T17:01:17.413Z,19.40
2018-10-12T17:03:52.841Z,19.30
2018-10-12T17:06:28.305Z,19.20
2018-10-12T17:09:03.885Z,19.10
2018-10-12T17:11:39.255Z,19.10
2018-10-12T17:14:14.802Z,19.00
2018-10-12T17:16:50.168Z,19.00
2018-10-12T17:19:25.699Z,18.90
2018-10-12T17:22:01.245Z,18.90
2018-10-12T17:24:36.864Z,18.90
2018-10-12T17:27:12.420Z,18.80
2018-10-12T17:29:48.066Z,18.70
2018-10-12T17:32:23.480Z,18.70
2018-10-12T17:34:59.080Z,18.70
2018-10-12T17:37:34.391Z,18.70
2018-10-12T17:40:10.564Z,18.60
2018-10-12T17:42:45.910Z,18.60
2018-10-12T17:45:21.416Z,18.50
2018-10-12T17:47:56.894Z,18.40
2018-10-12T17:50:32.473Z,18.40
2018-10-12T17:53:07.948Z,18.30
2018-10-12T17:55:43.769Z,18.30
2018-10-12T17:58:19.338Z,18.30
2018-10-12T18:00:54.918Z,18.20
2018-10-12T18:03:30.433Z,18.10
2018-10-12T18:06:05.905Z,18.10
2018-10-12T18:08:41.312Z,18.10
2018-10-12T18:11:17.165Z,18.10
2018-10-12T18:13:55.385Z,18.00
2018-10-12T18:16:31.048Z,17.90
2018-10-12T18:19:07.045Z,18.00
2018-10-12T18:21:42.700Z,18.10
2018-10-12T18:24:18.433Z,18.10
2018-10-12T18:26:53.897Z,18.00
2018-10-12T18:29:29.518Z,18.10
2018-10-12T18:32:04.989Z,18.10
2018-10-12T18:34:40.489Z,18.10
2018-10-12T18:37:16.004Z,18.10
2018-10-12T18:39:51.430Z,18.10
2018-10-12T18:42:27.143Z,18.10
2018-10-12T18:45:02.785Z,18.10
2018-10-12T18:47:38.851Z,18.00
2018-10-12T18:50:14.376Z,18.00
2018-10-12T18:52:50.199Z,18.00
2018-10-12T18:55:25.955Z,18.00
2018-10-12T18:58:01.552Z,17.90
2018-10-12T19:00:37.040Z,17.90
2018-10-12T19:03:12.547Z,18.00
2018-10-12T19:05:48.053Z,18.00
2018-10-12T19:08:23.552Z,18.00
2018-10-12T19:10:58.937Z,17.90
2018-10-12T19:13:34.630Z,18.00
2018-10-12T19:16:09.993Z,17.90
2018-10-12T19:18:45.649Z,17.90
2018-10-12T19:21:21.183Z,17.90
2018-10-12T19:23:56.817Z,17.90
2018-10-12T19:26:32.052Z,17.80
2018-10-12T19:29:08.198Z,17.70
2018-10-12T19:31:43.684Z,17.80
2018-10-12T19:34:19.099Z,17.80
2018-10-12T19:36:54.514Z,17.70
2018-10-12T19:39:30.026Z,17.70
2018-10-12T19:42:05.541Z,17.70
2018-10-12T19:44:41.008Z,17.70
2018-10-12T19:47:16.357Z,17.70
2018-10-12T19:49:52.105Z,17.70
2018-10-12T19:52:27.554Z,17.60
2018-10-12T19:55:03.169Z,17.70
2018-10-12T19:57:38.545Z,17.60
2018-10-12T20:00:14.127Z,17.60
2018-10-12T20:02:49.589Z,17.60
2018-10-12T20:05:25.233Z,17.60
2018-10-12T20:08:00.818Z,17.60
2018-10-12T20:10:36.476Z,17.60
2018-10-12T20:13:11.821Z,17.60
2018-10-12T20:15:47.382Z,17.60
2018-10-12T20:18:22.885Z,17.50
2018-10-12T20:20:58.393Z,17.40
2018-10-12T20:23:33.804Z,17.40
2018-10-12T20:26:09.414Z,17.30
2018-10-12T20:28:45.037Z,17.20
2018-10-12T20:31:20.845Z,17.20
2018-10-12T20:33:56.193Z,17.20
2018-10-12T20:36:31.821Z,17.30
2018-10-12T20:39:09.501Z,17.20
2018-10-12T20:41:44.999Z,17.20
2018-10-12T20:44:20.356Z,17.10
2018-10-12T20:46:56.182Z,17.20
2018-10-12T20:49:31.537Z,17.00
2018-10-12T20:52:07.252Z,17.00
2018-10-12T20:54:42.653Z,17.00
2018-10-12T20:57:18.379Z,17.00
2018-10-12T20:59:54.074Z,16.90
2018-10-12T21:02:29.875Z,16.90
2018-10-12T21:05:05.490Z,16.90
2018-10-12T21:07:41.549Z,16.90
2018-10-12T21:10:17.041Z,17.00
2018-10-12T21:12:52.643Z,16.90
2018-10-12T21:15:28.020Z,16.80
2018-10-12T21:18:03.776Z,16.80
2018-10-12T21:20:39.092Z,16.70
2018-10-12T21:23:14.585Z,16.70
2018-10-12T21:25:49.930Z,16.60
2018-10-12T21:28:25.620Z,16.60
2018-10-12T21:31:01.201Z,16.60
2018-10-12T21:33:36.710Z,16.60
2018-10-12T21:36:12.455Z,16.60
2018-10-12T21:38:47.917Z,16.60
2018-10-12T21:41:23.311Z,16.60
2018-10-12T21:43:58.909Z,16.50
2018-10-12T21:46:34.461Z,16.50
2018-10-12T21:49:10.090Z,16.60
2018-10-12T21:51:45.409Z,16.60
2018-10-12T21:54:20.996Z,16.50
2018-10-12T21:56:56.569Z,16.40
2018-10-12T21:59:32.141Z,16.40
2018-10-12T22:02:07.377Z,16.30
2018-10-12T22:04:43.289Z,16.30
2018-10-12T22:07:18.774Z,16.30
2018-10-12T22:09:54.320Z,16.30
2018-10-12T22:12:29.770Z,16.20
2018-10-12T22:15:05.280Z,16.30
2018-10-12T22:17:40.765Z,16.30
2018-10-12T22:20:16.906Z,16.30
2018-10-12T22:22:52.367Z,16.30
2018-10-12T22:25:27.873Z,16.30
2018-10-12T22:28:03.192Z,16.20
2018-10-12T22:30:39.070Z,16.20
2018-10-12T22:33:14.445Z,16.20
2018-10-12T22:35:50.165Z,16.10
2018-10-12T22:38:25.594Z,16.00
2018-10-12T22:41:01.064Z,16.00
2018-10-12T22:43:36.517Z,16.00
2018-10-12T22:46:12.054Z,16.00
2018-10-12T22:48:54.176Z,16.00
2018-10-12T22:51:29.901Z,15.90
2018-10-12T22:54:05.381Z,15.80
2018-10-12T22:56:40.897Z,15.80
2018-10-12T22:59:16.188Z,15.80
2018-10-12T23:01:51.900Z,15.70
2018-10-12T23:04:27.453Z,15.70
2018-10-12T23:07:03.173Z,15.70
2018-10-12T23:09:38.713Z,15.60
2018-10-12T23:12:14.386Z,15.60
2018-10-12T23:14:49.681Z,15.50
2018-10-12T23:17:25.284Z,15.50
2018-10-12T23:20:00.654Z,15.50
2018-10-12T23:22:36.372Z,15.50
2018-10-12T23:25:11.992Z,15.40
2018-10-12T23:27:47.782Z,15.40
2018-10-12T23:30:23.541Z,15.40
2018-10-12T23:33:16.213Z,15.50
2018-10-12T23:35:51.695Z,15.40
2018-10-12T23:38:27.270Z,15.40
2018-10-12T23:41:02.743Z,15.40
2018-10-12T23:43:38.157Z,15.50
2018-10-12T23:46:13.490Z,15.50
2018-10-12T23:48:49.053Z,15.40
2018-10-12T23:51:24.885Z,15.40
2018-10-12T23:54:00.669Z,15.50
2018-10-12T23:56:36.126Z,15.40
2018-10-12T23:59:11.720Z,15.40
